createdAt,value
2017-07-17T00:00:19.673Z,999.51
2017-07-17T00:01:19.703Z,999.51
2017-07-17T00:02:19.981Z,999.49
2017-07-17T00:03:19.758Z,999.5
2017-07-17T00:04:19.790Z,999.48
2017-07-17T00:05:19.824Z,999.51
2017-07-17T00:06:19.849Z,999.54
2017-07-17T00:07:20.129Z,999.53
2017-07-17T00:08:19.906Z,999.51
2017-07-17T00:09:19.935Z,999.5
2017-07-17T00:10:19.964Z,999.5
2017-07-17T00:11:19.992Z,999.51
2017-07-17T00:12:20.321Z,999.49
2017-07-17T00:13:20.050Z,999.48
2017-07-17T00:14:20.080Z,999.43
2017-07-17T00:15:20.107Z,999.47
2017-07-17T00:16:20.133Z,999.43
2017-07-17T00:17:20.165Z,999.41
2017-07-17T00:18:20.200Z,999.43
2017-07-17T00:19:20.222Z,999.39
2017-07-17T00:20:20.251Z,999.37
2017-07-17T00:21:20.280Z,999.41
2017-07-17T00:22:20.310Z,999.41
2017-07-17T00:23:20.338Z,999.41
2017-07-17T00:24:20.367Z,999.43
2017-07-17T00:25:20.395Z,999.38
2017-07-17T00:26:20.425Z,999.37
2017-07-17T00:27:20.457Z,999.39
2017-07-17T00:28:20.487Z,999.39
2017-07-17T00:29:20.523Z,999.39
2017-07-17T00:30:20.542Z,999.41
2017-07-17T00:31:20.565Z,999.39
2017-07-17T00:32:20.603Z,999.4
2017-07-17T00:33:20.632Z,999.38
2017-07-17T00:34:20.660Z,999.38
2017-07-17T00:35:20.687Z,999.4
2017-07-17T00:36:20.718Z,999.4
2017-07-17T00:37:20.747Z,999.38
2017-07-17T00:38:20.774Z,999.35
2017-07-17T00:39:20.804Z,999.36
2017-07-17T00:40:20.833Z,999.38
2017-07-17T00:41:20.861Z,999.33
2017-07-17T00:42:20.890Z,999.37
2017-07-17T00:43:20.919Z,999.32
2017-07-17T00:44:20.947Z,999.33
2017-07-17T00:45:20.972Z,999.33
2017-07-17T00:46:21.001Z,999.34
2017-07-17T00:47:21.034Z,999.3
2017-07-17T00:48:21.063Z,999.31
2017-07-17T00:49:21.093Z,999.34
2017-07-17T00:50:21.117Z,999.33
2017-07-17T00:51:21.150Z,999.31
2017-07-17T00:52:21.185Z,999.28
2017-07-17T00:53:21.207Z,999.29
2017-07-17T00:54:21.236Z,999.26
2017-07-17T00:55:21.264Z,999.28
2017-07-17T00:56:21.294Z,999.26
2017-07-17T00:57:21.323Z,999.22
2017-07-17T00:58:21.352Z,999.22
2017-07-17T00:59:21.380Z,999.2
2017-07-17T01:00:21.409Z,999.16
2017-07-17T01:01:21.438Z,999.21
2017-07-17T01:02:21.466Z,999.2
2017-07-17T01:03:21.495Z,999.23
2017-07-17T01:04:21.520Z,999.2
2017-07-17T01:05:21.554Z,999.19
2017-07-17T01:06:21.582Z,999.2
2017-07-17T01:07:21.614Z,999.16
2017-07-17T01:08:21.640Z,999.17
2017-07-17T01:09:21.664Z,999.13
2017-07-17T01:10:21.697Z,999.11
2017-07-17T01:11:21.729Z,999.1
2017-07-17T01:12:21.754Z,999.12
2017-07-17T01:13:21.783Z,999.12
2017-07-17T01:14:21.812Z,999.11
2017-07-17T01:15:21.841Z,999.1
2017-07-17T01:16:21.869Z,999.08
2017-07-17T01:17:21.902Z,999.12
2017-07-17T01:18:21.927Z,999.11
2017-07-17T01:19:21.956Z,999.1
2017-07-17T01:20:21.989Z,999.1
2017-07-17T01:21:22.019Z,999.1
2017-07-17T01:22:22.046Z,999.08
2017-07-17T01:23:22.326Z,999.09
2017-07-17T01:24:22.104Z,999.07
2017-07-17T01:25:22.134Z,999.07
2017-07-17T01:26:22.164Z,999.03
2017-07-17T01:27:22.191Z,999.05
2017-07-17T01:28:22.472Z,999.05
2017-07-17T01:29:22.248Z,999.07
2017-07-17T01:30:22.278Z,999.05
2017-07-17T01:31:22.307Z,999
2017-07-17T01:32:22.339Z,999
2017-07-17T01:33:22.662Z,999.01
2017-07-17T01:34:22.395Z,999.01
2017-07-17T01:35:22.421Z,999
2017-07-17T01:36:22.449Z,998.98
2017-07-17T01:37:22.475Z,998.99
2017-07-17T01:38:22.759Z,999.01
2017-07-17T01:39:22.536Z,999.02
2017-07-17T01:40:22.565Z,999.02
2017-07-17T01:41:22.593Z,999.04
2017-07-17T01:42:22.618Z,999.05
2017-07-17T01:43:22.902Z,999.05
2017-07-17T01:44:22.679Z,999.07
2017-07-17T01:45:22.708Z,999.04
2017-07-17T01:46:22.737Z,999.02
2017-07-17T01:47:22.767Z,999.05
2017-07-17T01:48:23.096Z,999.02
2017-07-17T01:49:22.824Z,999.06
2017-07-17T01:50:22.853Z,999.04
2017-07-17T01:51:22.881Z,999.01
2017-07-17T01:52:22.910Z,999.03
2017-07-17T01:53:23.190Z,999.01
2017-07-17T01:54:22.968Z,999.01
2017-07-17T01:55:22.995Z,999.03
2017-07-17T01:56:23.021Z,999
2017-07-17T01:57:23.050Z,999.02
2017-07-17T01:58:23.382Z,999.02
2017-07-17T01:59:23.111Z,998.98
2017-07-17T02:00:23.140Z,999
2017-07-17T02:01:23.165Z,999.01
2017-07-17T02:02:23.197Z,999.01
2017-07-17T02:03:23.478Z,999
2017-07-17T02:04:23.261Z,999.02
2017-07-17T02:05:23.287Z,999.02
2017-07-17T02:06:23.313Z,998.98
2017-07-17T02:07:23.342Z,998.98
2017-07-17T02:08:23.670Z,998.98
2017-07-17T02:09:23.398Z,998.94
2017-07-17T02:10:23.428Z,998.94
2017-07-17T02:11:23.456Z,998.92
2017-07-17T02:12:23.486Z,998.9
2017-07-17T02:13:23.761Z,998.94
2017-07-17T02:14:23.547Z,998.93
2017-07-17T02:15:23.572Z,998.94
2017-07-17T02:16:23.601Z,998.94
2017-07-17T02:17:23.626Z,998.91
2017-07-17T02:18:23.911Z,998.9
2017-07-17T02:19:23.687Z,998.94
2017-07-17T02:20:23.713Z,998.91
2017-07-17T02:21:23.742Z,998.9
2017-07-17T02:22:23.770Z,998.89
2017-07-17T02:23:24.050Z,998.91
2017-07-17T02:24:23.831Z,998.89
2017-07-17T02:25:23.856Z,998.9
2017-07-17T02:26:23.885Z,998.87
2017-07-17T02:27:23.916Z,998.89
2017-07-17T02:28:24.242Z,998.87
2017-07-17T02:29:23.971Z,998.87
2017-07-17T02:30:24.000Z,998.89
2017-07-17T02:31:24.029Z,998.88
2017-07-17T02:32:24.054Z,998.9
2017-07-17T02:33:24.082Z,998.91
2017-07-17T02:34:24.112Z,998.87
2017-07-17T02:35:24.145Z,998.92
2017-07-17T02:36:24.173Z,998.9
2017-07-17T02:37:24.201Z,998.85
2017-07-17T02:38:24.230Z,998.91
2017-07-17T02:39:24.255Z,998.91
2017-07-17T02:40:24.289Z,998.9
2017-07-17T02:41:24.317Z,998.91
2017-07-17T02:42:24.346Z,998.89
2017-07-17T02:43:24.377Z,998.86
2017-07-17T02:44:24.405Z,998.87
2017-07-17T02:45:24.432Z,998.88
2017-07-17T02:46:24.461Z,998.88
2017-07-17T02:47:24.492Z,998.89
2017-07-17T02:48:24.519Z,998.9
2017-07-17T02:49:24.548Z,998.92
2017-07-17T02:50:24.572Z,998.92
2017-07-17T02:51:24.601Z,998.89
2017-07-17T02:52:24.630Z,998.91
2017-07-17T02:53:24.659Z,998.91
2017-07-17T02:54:24.688Z,998.93
2017-07-17T02:55:24.717Z,998.91
2017-07-17T02:56:24.746Z,998.9
2017-07-17T02:57:24.775Z,998.88
2017-07-17T02:58:24.799Z,998.89
2017-07-17T02:59:24.828Z,998.89
2017-07-17T03:00:24.862Z,998.87
2017-07-17T03:01:24.889Z,998.89
2017-07-17T03:02:24.918Z,998.88
2017-07-17T03:03:24.943Z,998.88
2017-07-17T03:04:24.975Z,998.89
2017-07-17T03:05:25.004Z,998.86
2017-07-17T03:06:25.033Z,998.89
2017-07-17T03:07:25.062Z,998.85
2017-07-17T03:08:25.091Z,998.88
2017-07-17T03:09:25.120Z,998.9
2017-07-17T03:10:25.149Z,998.89
2017-07-17T03:11:25.172Z,998.9
2017-07-17T03:12:25.206Z,998.9
2017-07-17T03:13:25.241Z,998.85
2017-07-17T03:14:25.265Z,998.9
2017-07-17T03:15:25.293Z,998.91
2017-07-17T03:16:25.315Z,998.91
2017-07-17T03:17:25.346Z,998.91
2017-07-17T03:18:25.376Z,998.91
2017-07-17T03:19:25.404Z,998.94
2017-07-17T03:20:25.436Z,998.95
2017-07-17T03:21:25.460Z,998.95
2017-07-17T03:22:25.488Z,998.96
2017-07-17T03:23:25.519Z,998.98
2017-07-17T03:24:25.548Z,998.95
2017-07-17T03:25:25.576Z,998.96
2017-07-17T03:26:25.606Z,998.98
2017-07-17T03:27:25.631Z,998.96
2017-07-17T03:28:25.663Z,998.96
2017-07-17T03:29:25.692Z,998.96
2017-07-17T03:30:25.718Z,998.92
2017-07-17T03:31:25.746Z,998.94
2017-07-17T03:32:25.775Z,998.92
2017-07-17T03:33:25.800Z,998.89
2017-07-17T03:34:25.833Z,998.89
2017-07-17T03:35:25.862Z,998.9
2017-07-17T03:36:25.927Z,998.85
2017-07-17T03:37:25.950Z,998.86
2017-07-17T03:38:25.949Z,998.85
2017-07-17T03:39:25.978Z,998.87
2017-07-17T03:40:26.001Z,998.92
2017-07-17T03:41:26.031Z,998.86
2017-07-17T03:42:26.063Z,998.83
2017-07-17T03:43:26.092Z,998.84
2017-07-17T03:44:26.122Z,998.87
2017-07-17T03:45:26.145Z,998.86
2017-07-17T03:46:26.176Z,998.82
2017-07-17T03:47:26.200Z,998.84
2017-07-17T03:48:26.233Z,998.85
2017-07-17T03:49:26.262Z,998.85
2017-07-17T03:50:26.290Z,998.83
2017-07-17T03:51:26.315Z,998.84
2017-07-17T03:52:26.349Z,998.8
2017-07-17T03:53:26.377Z,998.86
2017-07-17T03:54:26.406Z,998.86
2017-07-17T03:55:26.434Z,998.86
2017-07-17T03:56:26.464Z,998.87
2017-07-17T03:57:26.492Z,998.86
2017-07-17T03:58:26.521Z,998.84
2017-07-17T03:59:26.547Z,998.84
2017-07-17T04:00:26.574Z,998.86
2017-07-17T04:01:26.603Z,998.85
2017-07-17T04:02:26.632Z,998.86
2017-07-17T04:03:26.661Z,998.87
2017-07-17T04:04:26.690Z,998.9
2017-07-17T04:05:26.715Z,998.89
2017-07-17T04:06:26.748Z,998.87
2017-07-17T04:07:26.776Z,998.86
2017-07-17T04:08:26.804Z,998.89
2017-07-17T04:09:26.834Z,998.87
2017-07-17T04:10:26.863Z,998.86
2017-07-17T04:11:26.884Z,998.9
2017-07-17T04:12:26.917Z,998.9
2017-07-17T04:13:26.946Z,998.89
2017-07-17T04:14:26.975Z,998.94
2017-07-17T04:15:27.000Z,998.92
2017-07-17T04:16:27.037Z,998.88
2017-07-17T04:17:27.061Z,998.92
2017-07-17T04:18:27.090Z,998.9
2017-07-17T04:19:27.119Z,998.91
2017-07-17T04:20:27.148Z,998.88
2017-07-17T04:21:27.176Z,998.9
2017-07-17T04:22:27.205Z,998.93
2017-07-17T04:23:27.234Z,998.9
2017-07-17T04:24:27.263Z,998.91
2017-07-17T04:25:27.288Z,998.89
2017-07-17T04:26:27.317Z,998.9
2017-07-17T04:27:27.345Z,998.89
2017-07-17T04:28:27.372Z,998.9
2017-07-17T04:29:27.401Z,998.91
2017-07-17T04:30:27.433Z,998.94
2017-07-17T04:31:27.461Z,998.95
2017-07-17T04:32:27.488Z,998.91
2017-07-17T04:33:27.518Z,998.93
2017-07-17T04:34:27.543Z,998.91
2017-07-17T04:35:27.576Z,998.92
2017-07-17T04:36:27.602Z,998.93
2017-07-17T04:37:27.630Z,998.93
2017-07-17T04:38:27.654Z,998.94
2017-07-17T04:39:27.687Z,998.94
2017-07-17T04:40:27.716Z,998.9
2017-07-17T04:41:27.745Z,998.92
2017-07-17T04:42:27.773Z,998.95
2017-07-17T04:43:27.803Z,998.94
2017-07-17T04:44:27.832Z,998.97
2017-07-17T04:45:27.856Z,998.99
2017-07-17T04:46:27.889Z,998.94
2017-07-17T04:47:27.919Z,999
2017-07-17T04:48:27.947Z,999.01
2017-07-17T04:49:28.227Z,999
2017-07-17T04:50:27.996Z,999.03
2017-07-17T04:51:28.029Z,999.05
2017-07-17T04:52:28.054Z,999.03
2017-07-17T04:53:28.087Z,999.05
2017-07-17T04:54:28.116Z,999.02
2017-07-17T04:55:28.139Z,998.99
2017-07-17T04:56:28.174Z,998.98
2017-07-17T04:57:28.201Z,999.02
2017-07-17T04:58:28.226Z,999
2017-07-17T04:59:28.260Z,999.01
2017-07-17T05:00:28.289Z,998.98
2017-07-17T05:01:28.318Z,998.99
2017-07-17T05:02:28.341Z,999
2017-07-17T05:03:28.367Z,998.99
2017-07-17T05:04:28.399Z,999.01
2017-07-17T05:05:28.428Z,999.05
2017-07-17T05:06:28.457Z,999.02
2017-07-17T05:07:28.486Z,999.04
2017-07-17T05:08:28.512Z,999.04
2017-07-17T05:09:28.546Z,999.03
2017-07-17T05:10:28.573Z,999
2017-07-17T05:11:28.602Z,999.02
2017-07-17T05:12:28.630Z,999.04
2017-07-17T05:13:28.651Z,999.03
2017-07-17T05:14:28.683Z,999.05
2017-07-17T05:15:28.714Z,999
2017-07-17T05:16:28.742Z,999.06
2017-07-17T05:17:28.770Z,999.06
2017-07-17T05:18:28.801Z,999.05
2017-07-17T05:19:28.828Z,999.08
2017-07-17T05:20:28.857Z,999.06
2017-07-17T05:21:28.886Z,999.08
2017-07-17T05:22:28.910Z,999.09
2017-07-17T05:23:28.943Z,999.12
2017-07-17T05:24:28.964Z,999.09
2017-07-17T05:25:28.997Z,999.09
2017-07-17T05:26:29.026Z,999.1
2017-07-17T05:27:29.054Z,999.07
2017-07-17T05:28:29.084Z,999.12
2017-07-17T05:29:29.114Z,999.09
2017-07-17T05:30:29.147Z,999.12
2017-07-17T05:31:29.171Z,999.11
2017-07-17T05:32:29.297Z,999.14
2017-07-17T05:33:29.228Z,999.15
2017-07-17T05:34:29.256Z,999.16
2017-07-17T05:35:29.279Z,999.14
2017-07-17T05:36:29.317Z,999.17
2017-07-17T05:37:29.345Z,999.15
2017-07-17T05:38:29.368Z,999.15
2017-07-17T05:39:29.396Z,999.12
2017-07-17T05:40:29.482Z,999.15
2017-07-17T05:41:29.456Z,999.16
2017-07-17T05:42:29.484Z,999.17
2017-07-17T05:43:29.515Z,999.18
2017-07-17T05:44:29.543Z,999.16
2017-07-17T05:45:29.574Z,999.18
2017-07-17T05:46:29.595Z,999.16
2017-07-17T05:47:29.629Z,999.2
2017-07-17T05:48:29.658Z,999.22
2017-07-17T05:49:29.685Z,999.21
2017-07-17T05:50:29.713Z,999.2
2017-07-17T05:51:29.742Z,999.24
2017-07-17T05:52:29.771Z,999.22
2017-07-17T05:53:29.801Z,999.24
2017-07-17T05:54:29.828Z,999.27
2017-07-17T05:55:29.858Z,999.24
2017-07-17T05:56:29.878Z,999.26
2017-07-17T05:57:29.911Z,999.24
2017-07-17T05:58:29.940Z,999.27
2017-07-17T05:59:29.973Z,999.26
2017-07-17T06:00:29.997Z,999.23
2017-07-17T06:01:30.027Z,999.23
2017-07-17T06:02:30.055Z,999.25
2017-07-17T06:03:30.085Z,999.23
2017-07-17T06:04:30.114Z,999.26
2017-07-17T06:05:30.393Z,999.26
2017-07-17T06:06:30.170Z,999.28
2017-07-17T06:07:30.200Z,999.29
2017-07-17T06:08:30.228Z,999.31
2017-07-17T06:09:30.257Z,999.26
2017-07-17T06:10:30.538Z,999.29
2017-07-17T06:11:30.316Z,999.28
2017-07-17T06:12:30.343Z,999.28
2017-07-17T06:13:30.372Z,999.3
2017-07-17T06:14:30.401Z,999.3
2017-07-17T06:15:30.682Z,999.29
2017-07-17T06:16:30.461Z,999.27
2017-07-17T06:17:30.487Z,999.33
2017-07-17T06:18:30.520Z,999.29
2017-07-17T06:19:30.545Z,999.29
2017-07-17T06:20:30.825Z,999.32
2017-07-17T06:21:30.602Z,999.32
2017-07-17T06:22:30.627Z,999.31
2017-07-17T06:23:30.660Z,999.28
2017-07-17T06:24:30.689Z,999.28
2017-07-17T06:25:30.969Z,999.29
2017-07-17T06:26:30.739Z,999.3
2017-07-17T06:27:30.771Z,999.33
2017-07-17T06:28:30.804Z,999.31
2017-07-17T06:29:30.831Z,999.29
2017-07-17T06:30:31.105Z,999.28
2017-07-17T06:31:30.886Z,999.31
2017-07-17T06:32:30.915Z,999.27
2017-07-17T06:33:30.950Z,999.29
2017-07-17T06:34:30.970Z,999.27
2017-07-17T06:35:31.253Z,999.23
2017-07-17T06:36:31.030Z,999.24
2017-07-17T06:37:31.059Z,999.25
2017-07-17T06:38:31.088Z,999.27
2017-07-17T06:39:31.113Z,999.27
2017-07-17T06:40:31.145Z,999.24
2017-07-17T06:41:31.174Z,999.27
2017-07-17T06:42:31.203Z,999.27
2017-07-17T06:43:31.232Z,999.24
2017-07-17T06:44:31.261Z,999.25
2017-07-17T06:45:31.285Z,999.24
2017-07-17T06:46:31.318Z,999.22
2017-07-17T06:47:31.344Z,999.24
2017-07-17T06:48:31.377Z,999.2
2017-07-17T06:49:31.405Z,999.22
2017-07-17T06:50:31.434Z,999.19
2017-07-17T06:51:31.463Z,999.19
2017-07-17T06:52:31.492Z,999.2
2017-07-17T06:53:31.521Z,999.19
2017-07-17T06:54:31.549Z,999.22
2017-07-17T06:55:31.578Z,999.21
2017-07-17T06:56:31.607Z,999.23
2017-07-17T06:57:31.635Z,999.24
2017-07-17T06:58:31.664Z,999.22
2017-07-17T06:59:31.693Z,999.23
2017-07-17T07:00:31.723Z,999.25
2017-07-17T07:01:31.751Z,999.25
2017-07-17T07:02:31.780Z,999.26
2017-07-17T07:03:31.802Z,999.24
2017-07-17T07:04:31.825Z,999.22
2017-07-17T07:05:31.866Z,999.25
2017-07-17T07:06:31.917Z,999.2
2017-07-17T07:07:31.924Z,999.24
2017-07-17T07:08:31.953Z,999.26
2017-07-17T07:09:31.982Z,999.23
2017-07-17T07:10:32.011Z,999.24
2017-07-17T07:11:32.038Z,999.21
2017-07-17T07:12:32.068Z,999.22
2017-07-17T07:13:32.096Z,999.24
2017-07-17T07:14:32.125Z,999.22
2017-07-17T07:15:32.155Z,999.2
2017-07-17T07:16:32.183Z,999.21
2017-07-17T07:17:32.212Z,999.23
2017-07-17T07:18:32.240Z,999.23
2017-07-17T07:19:32.269Z,999.24
2017-07-17T07:20:32.299Z,999.23
2017-07-17T07:21:32.326Z,999.28
2017-07-17T07:22:32.356Z,999.22
2017-07-17T07:23:32.388Z,999.18
2017-07-17T07:24:32.413Z,999.2
2017-07-17T07:25:32.447Z,999.17
2017-07-17T07:26:32.475Z,999.2
2017-07-17T07:27:32.504Z,999.2
2017-07-17T07:28:32.532Z,999.22
2017-07-17T07:29:32.561Z,999.23
2017-07-17T07:30:32.590Z,999.22
2017-07-17T07:31:32.619Z,999.23
2017-07-17T07:32:32.648Z,999.3
2017-07-17T07:33:32.676Z,999.26
2017-07-17T07:34:32.705Z,999.27
2017-07-17T07:35:32.731Z,999.3
2017-07-17T07:36:32.763Z,999.29
2017-07-17T07:37:32.792Z,999.3
2017-07-17T07:38:32.822Z,999.29
2017-07-17T07:39:32.850Z,999.3
2017-07-17T07:40:32.875Z,999.29
2017-07-17T07:41:32.907Z,999.34
2017-07-17T07:42:32.936Z,999.3
2017-07-17T07:43:32.965Z,999.35
2017-07-17T07:44:32.990Z,999.3
2017-07-17T07:45:33.021Z,999.3
2017-07-17T07:46:33.051Z,999.32
2017-07-17T07:47:33.077Z,999.3
2017-07-17T07:48:33.113Z,999.3
2017-07-17T07:49:33.142Z,999.28
2017-07-17T07:50:33.170Z,999.31
2017-07-17T07:51:33.199Z,999.27
2017-07-17T07:52:33.228Z,999.26
2017-07-17T07:53:33.253Z,999.27
2017-07-17T07:54:33.285Z,999.26
2017-07-17T07:55:33.316Z,999.27
2017-07-17T07:56:33.590Z,999.27
2017-07-17T07:57:33.372Z,999.25
2017-07-17T07:58:33.398Z,999.23
2017-07-17T07:59:33.430Z,999.22
2017-07-17T08:00:33.462Z,999.23
2017-07-17T08:01:33.790Z,999.23
2017-07-17T08:02:33.517Z,999.21
2017-07-17T08:03:33.548Z,999.22
2017-07-17T08:04:33.577Z,999.19
2017-07-17T08:05:33.606Z,999.19
2017-07-17T08:06:33.883Z,999.25
2017-07-17T08:07:33.666Z,999.21
2017-07-17T08:08:33.692Z,999.18
2017-07-17T08:09:33.722Z,999.22
2017-07-17T08:10:33.749Z,999.27
2017-07-17T08:11:34.034Z,999.25
2017-07-17T08:12:33.805Z,999.26
2017-07-17T08:13:33.836Z,999.24
2017-07-17T08:14:33.869Z,999.22
2017-07-17T08:15:33.898Z,999.22
2017-07-17T08:16:34.178Z,999.21
2017-07-17T08:17:33.956Z,999.19
2017-07-17T08:18:33.984Z,999.24
2017-07-17T08:19:34.013Z,999.22
2017-07-17T08:20:34.043Z,999.19
2017-07-17T08:21:34.319Z,999.19
2017-07-17T08:22:34.099Z,999.19
2017-07-17T08:23:34.128Z,999.17
2017-07-17T08:24:34.163Z,999.15
2017-07-17T08:25:34.190Z,999.19
2017-07-17T08:26:34.470Z,999.16
2017-07-17T08:27:34.243Z,999.18
2017-07-17T08:28:34.281Z,999.13
2017-07-17T08:29:34.305Z,999.14
2017-07-17T08:30:34.336Z,999.11
2017-07-17T08:31:34.614Z,999.1
2017-07-17T08:32:34.392Z,999.08
2017-07-17T08:33:34.420Z,999.05
2017-07-17T08:34:34.449Z,999.07
2017-07-17T08:35:34.482Z,999.06
2017-07-17T08:36:34.761Z,999.07
2017-07-17T08:37:34.539Z,999.05
2017-07-17T08:38:34.568Z,999.04
2017-07-17T08:39:34.600Z,999.07
2017-07-17T08:40:34.625Z,999.03
2017-07-17T08:41:34.952Z,999.05
2017-07-17T08:42:34.684Z,999.05
2017-07-17T08:43:34.713Z,999.07
2017-07-17T08:44:34.746Z,999.1
2017-07-17T08:45:34.771Z,999.06
2017-07-17T08:46:35.055Z,999.04
2017-07-17T08:47:34.831Z,999.09
2017-07-17T08:48:34.861Z,999.03
2017-07-17T08:49:34.887Z,999.03
2017-07-17T08:50:34.917Z,999.02
2017-07-17T08:51:35.199Z,998.97
2017-07-17T08:52:34.976Z,998.99
2017-07-17T08:53:35.005Z,998.95
2017-07-17T08:54:35.037Z,998.93
2017-07-17T08:55:35.062Z,998.9
2017-07-17T08:56:35.346Z,998.89
2017-07-17T08:57:35.125Z,998.88
2017-07-17T08:58:35.153Z,998.89
2017-07-17T08:59:35.182Z,998.9
2017-07-17T09:00:35.210Z,998.88
2017-07-17T09:01:35.490Z,998.9
2017-07-17T09:02:35.272Z,998.87
2017-07-17T09:03:35.295Z,998.85
2017-07-17T09:04:35.330Z,998.88
2017-07-17T09:05:35.359Z,998.84
2017-07-17T09:06:35.641Z,998.87
2017-07-17T09:07:35.416Z,998.87
2017-07-17T09:08:35.445Z,998.89
2017-07-17T09:09:35.470Z,998.84
2017-07-17T09:10:35.499Z,998.81
2017-07-17T09:11:35.783Z,998.84
2017-07-17T09:12:35.560Z,998.84
2017-07-17T09:13:35.594Z,998.82
2017-07-17T09:14:35.621Z,998.8
2017-07-17T09:15:35.650Z,998.83
2017-07-17T09:16:35.931Z,998.83
2017-07-17T09:17:35.708Z,998.81
2017-07-17T09:18:35.737Z,998.77
2017-07-17T09:19:35.770Z,998.8
2017-07-17T09:20:35.799Z,998.78
2017-07-17T09:21:36.126Z,998.79
2017-07-17T09:22:35.855Z,998.8
2017-07-17T09:23:35.884Z,998.8
2017-07-17T09:24:35.959Z,998.81
2017-07-17T09:25:35.947Z,998.8
2017-07-17T09:26:36.274Z,998.77
2017-07-17T09:27:36.004Z,998.77
2017-07-17T09:28:36.034Z,998.74
2017-07-17T09:29:36.062Z,998.73
2017-07-17T09:30:36.094Z,998.77
2017-07-17T09:31:36.123Z,998.75
2017-07-17T09:32:36.148Z,998.77
2017-07-17T09:33:36.180Z,998.74
2017-07-17T09:34:36.214Z,998.74
2017-07-17T09:35:36.241Z,998.68
2017-07-17T09:36:36.271Z,998.66
2017-07-17T09:37:36.299Z,998.69
2017-07-17T09:38:36.329Z,998.64
2017-07-17T09:39:36.358Z,998.68
2017-07-17T09:40:36.385Z,998.67
2017-07-17T09:41:36.415Z,998.66
2017-07-17T09:42:36.445Z,998.63
2017-07-17T09:43:36.477Z,998.61
2017-07-17T09:44:36.505Z,998.61
2017-07-17T09:45:36.531Z,998.6
2017-07-17T09:46:36.568Z,998.59
2017-07-17T09:47:36.596Z,998.62
2017-07-17T09:48:36.626Z,998.6
2017-07-17T09:49:36.655Z,998.59
2017-07-17T09:50:36.679Z,998.61
2017-07-17T09:51:36.713Z,998.58
2017-07-17T09:52:36.744Z,998.55
2017-07-17T09:53:36.770Z,998.58
2017-07-17T09:54:36.802Z,998.57
2017-07-17T09:55:36.825Z,998.58
2017-07-17T09:56:36.856Z,998.62
2017-07-17T09:57:36.891Z,998.55
2017-07-17T09:58:36.920Z,998.56
2017-07-17T09:59:36.951Z,998.54
2017-07-17T10:00:36.978Z,998.55
2017-07-17T10:01:37.007Z,998.53
2017-07-17T10:02:37.036Z,998.51
2017-07-17T10:03:37.070Z,998.56
2017-07-17T10:04:37.093Z,998.57
2017-07-17T10:05:37.127Z,998.55
2017-07-17T10:06:37.155Z,998.57
2017-07-17T10:07:37.185Z,998.56
2017-07-17T10:08:37.220Z,998.52
2017-07-17T10:09:37.247Z,998.53
2017-07-17T10:10:37.275Z,998.51
2017-07-17T10:11:37.304Z,998.51
2017-07-17T10:12:37.332Z,998.48
2017-07-17T10:13:37.364Z,998.47
2017-07-17T10:14:37.395Z,998.49
2017-07-17T10:15:37.423Z,998.46
2017-07-17T10:16:37.453Z,998.43
2017-07-17T10:17:37.481Z,998.48
2017-07-17T10:18:37.513Z,998.47
2017-07-17T10:19:37.537Z,998.43
2017-07-17T10:20:37.571Z,998.5
2017-07-17T10:21:37.597Z,998.5
2017-07-17T10:22:37.632Z,998.48
2017-07-17T10:23:37.661Z,998.5
2017-07-17T10:24:37.690Z,998.53
2017-07-17T10:25:37.716Z,998.49
2017-07-17T10:26:37.748Z,998.49
2017-07-17T10:27:37.773Z,998.48
2017-07-17T10:28:37.809Z,998.56
2017-07-17T10:29:37.838Z,998.55
2017-07-17T10:30:37.866Z,998.52
2017-07-17T10:31:37.895Z,998.53
2017-07-17T10:32:37.928Z,998.53
2017-07-17T10:33:37.957Z,998.51
2017-07-17T10:34:37.986Z,998.51
2017-07-17T10:35:38.015Z,998.55
2017-07-17T10:36:38.048Z,998.57
2017-07-17T10:37:38.076Z,998.53
2017-07-17T10:38:38.105Z,998.53
2017-07-17T10:39:38.130Z,998.48
2017-07-17T10:40:38.167Z,998.46
2017-07-17T10:41:38.195Z,998.48
2017-07-17T10:42:38.224Z,998.43
2017-07-17T10:43:38.250Z,998.44
2017-07-17T10:44:38.286Z,998.43
2017-07-17T10:45:38.311Z,998.43
2017-07-17T10:46:38.343Z,998.45
2017-07-17T10:47:38.372Z,998.46
2017-07-17T10:48:38.405Z,998.43
2017-07-17T10:49:38.434Z,998.43
2017-07-17T10:50:38.463Z,998.46
2017-07-17T10:51:38.492Z,998.46
2017-07-17T10:52:38.525Z,998.51
2017-07-17T10:53:38.552Z,998.54
2017-07-17T10:54:38.583Z,998.5
2017-07-17T10:55:38.614Z,998.48
2017-07-17T10:56:38.639Z,998.47
2017-07-17T10:57:38.975Z,998.46
2017-07-17T10:58:38.701Z,998.5
2017-07-17T10:59:38.730Z,998.53
2017-07-17T11:00:38.764Z,998.49
2017-07-17T11:01:38.798Z,998.49
2017-07-17T11:02:39.122Z,998.48
2017-07-17T11:03:38.849Z,998.48
2017-07-17T11:04:38.883Z,998.5
2017-07-17T11:05:38.913Z,998.53
2017-07-17T11:06:38.947Z,998.44
2017-07-17T11:07:39.273Z,998.43
2017-07-17T11:08:39.004Z,998.43
2017-07-17T11:09:39.031Z,998.47
2017-07-17T11:10:39.065Z,998.43
2017-07-17T11:11:39.090Z,998.43
2017-07-17T11:12:39.123Z,998.4
2017-07-17T11:13:39.149Z,998.38
2017-07-17T11:14:39.183Z,998.39
2017-07-17T11:15:39.212Z,998.42
2017-07-17T11:16:39.239Z,998.4
2017-07-17T11:17:39.273Z,998.35
2017-07-17T11:18:39.302Z,998.33
2017-07-17T11:19:39.329Z,998.33
2017-07-17T11:20:39.372Z,998.34
2017-07-17T11:21:39.392Z,998.27
2017-07-17T11:22:39.421Z,998.3
2017-07-17T11:23:39.449Z,998.27
2017-07-17T11:24:39.482Z,998.26
2017-07-17T11:25:39.511Z,998.24
2017-07-17T11:26:39.539Z,998.21
2017-07-17T11:27:39.567Z,998.2
2017-07-17T11:28:39.601Z,998.17
2017-07-17T11:29:39.630Z,998.22
2017-07-17T11:30:39.655Z,998.19
2017-07-17T11:31:39.692Z,998.15
2017-07-17T11:33:39.750Z,998.22
2017-07-17T11:34:39.779Z,998.21
2017-07-17T11:35:39.811Z,998.21
2017-07-17T11:36:39.841Z,998.29
2017-07-17T11:37:39.870Z,998.29
2017-07-17T11:38:39.924Z,998.32
2017-07-17T11:39:39.928Z,998.35
2017-07-17T11:40:39.961Z,998.33
2017-07-17T11:41:39.988Z,998.32
2017-07-17T11:42:40.022Z,998.3
2017-07-17T11:43:40.055Z,998.36
2017-07-17T11:44:40.084Z,998.3
2017-07-17T11:45:40.112Z,998.28
2017-07-17T11:56:08.040Z,998.11
2017-07-17T11:57:08.071Z,998.08
2017-07-17T11:59:08.133Z,998.08
2017-07-17T12:00:08.163Z,998.1
2017-07-17T12:01:08.195Z,998.12
2017-07-17T12:02:08.224Z,998.06
2017-07-17T12:03:08.509Z,998.06
2017-07-17T12:04:08.286Z,998.09
2017-07-17T12:06:08.347Z,998.01
2017-07-17T12:07:08.380Z,998.04
2017-07-17T12:08:08.660Z,998.06
2017-07-17T12:09:08.443Z,998.08
2017-07-17T12:10:08.471Z,998.04
2017-07-17T12:11:08.503Z,998.09
2017-07-17T12:12:08.539Z,998.11
2017-07-17T12:13:08.815Z,998.08
2017-07-17T12:14:08.595Z,998.08
2017-07-17T12:15:08.623Z,998.28
2017-07-17T12:16:08.651Z,998.29
2017-07-17T12:17:08.684Z,998.2
2017-07-17T12:18:09.017Z,998.21
2017-07-17T12:19:08.746Z,998.16
2017-07-17T12:20:08.780Z,998.24
2017-07-17T12:21:08.808Z,998.28
2017-07-17T12:22:08.845Z,998.25
2017-07-17T12:23:09.117Z,998.27
2017-07-17T12:24:08.910Z,998.23
2017-07-17T12:25:08.935Z,998.23
2017-07-17T12:26:08.968Z,998.29
2017-07-17T12:27:09.000Z,998.29
2017-07-17T12:28:09.328Z,998.31
2017-07-17T12:29:09.058Z,998.3
2017-07-17T12:30:09.096Z,998.33
2017-07-17T12:31:09.128Z,998.34
2017-07-17T12:32:09.162Z,998.32
2017-07-17T12:33:09.189Z,998.24
2017-07-17T12:34:09.227Z,998.27
2017-07-17T12:35:09.259Z,998.4
2017-07-17T12:36:09.286Z,998.52
2017-07-17T12:37:09.321Z,998.54
2017-07-17T12:38:09.359Z,998.5
2017-07-17T12:39:09.390Z,998.55
2017-07-17T12:40:09.425Z,998
2017-07-17T12:41:09.452Z,997.95
2017-07-17T12:42:09.488Z,997.94
2017-07-17T12:43:09.522Z,997.97
2017-07-17T12:44:09.555Z,997.97
2017-07-17T12:45:09.592Z,997.97